Time;durP1;ratioP1;P1;durP2;ratioP2;P2;SDS_P1;SDS_P2;PMS_P1;PMS_P2;Temp;Humidity;BMP_temperature;BMP_pressure;BME280_temperature;BME280_humidity;BME280_pressure;Samples;Min_cycle;Max_cycle;Signal;HPM_P1;HPM_P2
2020/12/30 00:01:30;;;;;;;12.10;9.80;;;;;;;;;;5054883;28;20406;-81
2020/12/30 00:03:56;;;;;;;10.93;9.82;;;;;;;;;;5072735;28;20353;-80
2020/12/30 00:06:23;;;;;;;10.98;9.88;;;;;;;;;;5054561;28;20465;-79
2020/12/30 00:08:49;;;;;;;11.05;9.85;;;;;;;;;;5054638;28;20363;-82
2020/12/30 00:11:18;;;;;;;11.13;9.95;;;;;;;;;;5053904;28;20445;-81
2020/12/30 00:13:44;;;;;;;11.88;10.68;;;;;;;;;;5054365;28;20508;-81
2020/12/30 00:16:10;;;;;;;12.57;11.27;;;;;;;;;;5072410;28;20483;-80
2020/12/30 00:18:36;;;;;;;11.70;10.50;;;;;;;;;;5071970;28;20390;-79
2020/12/30 00:21:03;;;;;;;11.02;9.93;;;;;;;;;;5054046;28;20725;-80
2020/12/30 00:23:29;;;;;;;10.43;9.35;;;;;;;;;;5072072;28;20404;-79
2020/12/30 00:25:55;;;;;;;11.87;10.23;;;;;;;;;;5055923;28;20362;-81
2020/12/30 00:28:22;;;;;;;11.75;10.32;;;;;;;;;;5063475;28;20373;-80
2020/12/30 00:30:48;;;;;;;10.73;9.73;;;;;;;;;;5073940;28;20828;-81
2020/12/30 00:33:14;;;;;;;11.88;10.68;;;;;;;;;;5054246;28;20366;-80
2020/12/30 00:35:40;;;;;;;12.20;10.98;;;;;;;;;;5072304;28;20409;-80
2020/12/30 00:38:06;;;;;;;12.25;10.98;;;;;;;;;;5054501;28;20362;-79
2020/12/30 00:40:33;;;;;;;12.20;11.00;;;;;;;;;;5071357;28;20366;-80
2020/12/30 00:42:59;;;;;;;12.30;10.80;;;;;;;;;;5070904;28;20423;-81
2020/12/30 00:45:25;;;;;;;12.52;11.32;;;;;;;;;;5053758;28;20834;-81
2020/12/30 00:47:51;;;;;;;14.23;12.32;;;;;;;;;;5053759;28;20366;-78
2020/12/30 00:50:17;;;;;;;13.85;12.45;;;;;;;;;;5053917;28;20377;-80
2020/12/30 00:52:43;;;;;;;14.00;12.35;;;;;;;;;;5054106;28;20416;-80
2020/12/30 00:55:12;;;;;;;13.73;12.38;;;;;;;;;;5072100;28;20354;-79
2020/12/30 00:57:38;;;;;;;14.27;12.80;;;;;;;;;;5053458;28;20370;-83
2020/12/30 01:00:04;;;;;;;15.93;13.48;;;;;;;;;;5053345;28;20366;-79
2020/12/30 01:02:30;;;;;;;15.23;13.52;;;;;;;;;;5071706;28;20406;-80
2020/12/30 01:04:56;;;;;;;15.73;14.02;;;;;;;;;;5071311;28;20713;-80
2020/12/30 01:07:22;;;;;;;15.63;14.07;;;;;;;;;;5053187;28;20405;-80
2020/12/30 01:09:48;;;;;;;15.20;13.70;;;;;;;;;;5053620;28;20373;-81
2020/12/30 01:12:14;;;;;;;16.75;15.00;;;;;;;;;;5071691;28;20397;-81
2020/12/30 01:14:40;;;;;;;17.05;15.35;;;;;;;;;;5071475;28;20362;-80
2020/12/30 01:17:06;;;;;;;16.23;14.52;;;;;;;;;;5052009;28;20401;-81
2020/12/30 01:19:32;;;;;;;17.02;15.20;;;;;;;;;;5052404;28;20448;-80
2020/12/30 01:21:58;;;;;;;17.75;15.98;;;;;;;;;;5071515;28;20397;-80
2020/12/30 01:24:25;;;;;;;16.77;15.18;;;;;;;;;;5053295;28;20370;-80
2020/12/30 01:26:51;;;;;;;16.60;14.98;;;;;;;;;;5071228;28;20725;-80
2020/12/30 01:29:17;;;;;;;17.05;15.35;;;;;;;;;;5053077;28;20405;-80
2020/12/30 01:31:43;;;;;;;17.17;15.40;;;;;;;;;;5052983;28;20366;-81
2020/12/30 01:34:09;;;;;;;17.77;15.98;;;;;;;;;;5071050;28;20385;-80
2020/12/30 01:36:36;;;;;;;18.15;15.95;;;;;;;;;;5052755;28;20351;-80
2020/12/30 01:39:03;;;;;;;16.88;15.18;;;;;;;;;;5070510;28;20697;-80
2020/12/30 01:41:29;;;;;;;16.75;15.05;;;;;;;;;;5071029;28;20504;-80
2020/12/30 01:44:06;;;;;;;18.00;16.15;;;;;;;;;;5070864;28;20896;-80
2020/12/30 01:46:36;;;;;;;17.10;15.30;;;;;;;;;;5070929;28;20369;-80
2020/12/30 01:49:04;;;;;;;16.90;15.30;;;;;;;;;;5052680;28;20758;-80
2020/12/30 01:51:30;;;;;;;16.13;14.52;;;;;;;;;;5071336;28;20816;-80
2020/12/30 01:53:57;;;;;;;17.90;15.70;;;;;;;;;;5070842;28;20838;-79
2020/12/30 01:56:25;;;;;;;16.10;14.47;;;;;;;;;;5053302;28;20405;-80
2020/12/30 01:58:51;;;;;;;16.40;14.63;;;;;;;;;;5071778;28;20939;-79
2020/12/30 02:01:20;;;;;;;15.93;14.43;;;;;;;;;;5052236;28;20837;-80
2020/12/30 02:03:46;;;;;;;15.97;14.30;;;;;;;;;;5052704;28;20452;-80
2020/12/30 02:06:12;;;;;;;15.32;13.85;;;;;;;;;;5070710;28;20493;-81
2020/12/30 02:08:38;;;;;;;14.45;12.95;;;;;;;;;;5071057;28;20888;-80
2020/12/30 02:11:04;;;;;;;14.88;13.40;;;;;;;;;;5052658;28;20366;-79
2020/12/30 02:13:30;;;;;;;14.93;13.33;;;;;;;;;;5052726;28;20470;-80
2020/12/30 02:16:00;;;;;;;15.55;13.95;;;;;;;;;;5052566;28;20837;-79
2020/12/30 02:18:26;;;;;;;14.43;13.00;;;;;;;;;;5072868;28;20385;-80
2020/12/30 02:20:52;;;;;;;14.55;13.15;;;;;;;;;;5074786;28;20754;-81
2020/12/30 02:23:19;;;;;;;14.57;13.18;;;;;;;;;;5056665;28;20390;-80
2020/12/30 02:25:45;;;;;;;14.30;12.90;;;;;;;;;;5074698;28;20443;-80
2020/12/30 02:28:14;;;;;;;14.10;12.70;;;;;;;;;;5074491;28;20358;-80
2020/12/30 02:30:40;;;;;;;14.88;13.27;;;;;;;;;;5074139;28;20346;-80
2020/12/30 02:33:09;;;;;;;14.95;13.40;;;;;;;;;;5074591;28;20759;-80
2020/12/30 02:35:35;;;;;;;14.60;13.20;;;;;;;;;;5074488;28;20362;-80
2020/12/30 02:38:01;;;;;;;13.25;11.93;;;;;;;;;;5074645;28;20818;-80
2020/12/30 02:40:28;;;;;;;14.15;12.77;;;;;;;;;;5074184;28;20857;-81
2020/12/30 02:42:54;;;;;;;14.57;13.18;;;;;;;;;;5056464;28;20390;-80
2020/12/30 02:45:20;;;;;;;15.05;13.48;;;;;;;;;;5056201;28;20358;-80
2020/12/30 02:47:45;;;;;;;14.63;12.90;;;;;;;;;;5056442;28;20358;-81
2020/12/30 02:50:11;;;;;;;14.97;13.37;;;;;;;;;;5056098;28;20836;-79
2020/12/30 02:52:37;;;;;;;15.98;14.38;;;;;;;;;;5056144;28;20401;-79
2020/12/30 02:55:03;;;;;;;14.82;13.35;;;;;;;;;;5056187;28;20785;-80
2020/12/30 02:57:29;;;;;;;15.18;13.60;;;;;;;;;;5074388;28;20701;-79
2020/12/30 02:59:56;;;;;;;15.80;14.18;;;;;;;;;;5073682;28;20360;-80
2020/12/30 03:02:30;;;;;;;15.27;13.68;;;;;;;;;;5073966;28;20390;-80
2020/12/30 03:04:56;;;;;;;16.10;14.43;;;;;;;;;;5056154;28;20374;-80
2020/12/30 03:07:22;;;;;;;14.88;13.40;;;;;;;;;;5056054;28;20373;-80
2020/12/30 03:09:48;;;;;;;15.97;14.27;;;;;;;;;;5073472;28;20366;-81
2020/12/30 03:12:14;;;;;;;15.82;14.23;;;;;;;;;;5059126;28;20751;-80
2020/12/30 03:14:40;;;;;;;16.23;14.63;;;;;;;;;;5073497;28;20449;-80
2020/12/30 03:17:06;;;;;;;15.10;13.60;;;;;;;;;;5055846;28;20353;-80
2020/12/30 03:19:32;;;;;;;14.75;13.30;;;;;;;;;;5055433;28;20851;-80
2020/12/30 03:21:58;;;;;;;15.18;13.65;;;;;;;;;;5073485;28;20398;-80
2020/12/30 03:24:25;;;;;;;14.80;13.32;;;;;;;;;;5073869;28;20353;-80
2020/12/30 03:26:51;;;;;;;15.55;14.00;;;;;;;;;;5073535;28;20355;-80
2020/12/30 03:29:17;;;;;;;15.05;13.57;;;;;;;;;;5054430;28;20420;-79
2020/12/30 03:31:43;;;;;;;15.90;14.20;;;;;;;;;;5073332;28;20461;-80
2020/12/30 03:34:09;;;;;;;17.10;14.60;;;;;;;;;;5073389;28;20812;-80
2020/12/30 03:36:35;;;;;;;15.88;14.25;;;;;;;;;;5055419;28;20374;-80
2020/12/30 03:39:02;;;;;;;16.50;14.77;;;;;;;;;;5055193;28;20370;-80
2020/12/30 03:41:28;;;;;;;15.98;14.27;;;;;;;;;;5055194;28;20386;-80
2020/12/30 03:43:54;;;;;;;15.93;13.93;;;;;;;;;;5055090;28;20442;-80
2020/12/30 03:46:20;;;;;;;16.92;14.45;;;;;;;;;;5073144;28;20350;-81
2020/12/30 03:48:46;;;;;;;15.75;14.15;;;;;;;;;;5055133;28;20868;-80
2020/12/30 03:51:12;;;;;;;15.27;13.70;;;;;;;;;;5072938;28;20432;-80
2020/12/30 03:53:38;;;;;;;16.27;14.45;;;;;;;;;;5073270;28;20817;-80
2020/12/30 03:56:04;;;;;;;16.83;14.93;;;;;;;;;;5054759;28;20741;-79
2020/12/30 03:58:29;;;;;;;16.60;14.90;;;;;;;;;;5073176;28;20698;-82
2020/12/30 04:00:55;;;;;;;16.40;14.80;;;;;;;;;;5072407;28;20411;-80
2020/12/30 04:03:21;;;;;;;16.80;15.00;;;;;;;;;;5072750;28;20393;-79
2020/12/30 04:05:50;;;;;;;17.15;14.77;;;;;;;;;;5072567;28;20366;-80
2020/12/30 04:08:16;;;;;;;15.98;13.88;;;;;;;;;;5073441;28;20425;-80
2020/12/30 04:10:42;;;;;;;16.50;14.48;;;;;;;;;;5054375;28;20457;-79
2020/12/30 04:13:08;;;;;;;15.65;14.05;;;;;;;;;;5072797;28;20363;-80
2020/12/30 04:15:34;;;;;;;15.88;14.27;;;;;;;;;;5054778;28;20362;-80
2020/12/30 04:18:00;;;;;;;15.77;14.18;;;;;;;;;;5072760;28;20710;-80
2020/12/30 04:20:26;;;;;;;16.92;15.07;;;;;;;;;;5072470;28;20444;-80
2020/12/30 04:22:52;;;;;;;16.85;15.07;;;;;;;;;;5072431;28;20437;-80
2020/12/30 04:25:18;;;;;;;15.75;14.10;;;;;;;;;;5072728;28;20374;-83
2020/12/30 04:27:44;;;;;;;20.38;16.15;;;;;;;;;;5054318;28;20363;-81
2020/12/30 04:30:10;;;;;;;16.58;14.77;;;;;;;;;;5054075;28;20400;-80
2020/12/30 04:32:35;;;;;;;18.88;15.07;;;;;;;;;;5054362;28;20374;-81
2020/12/30 04:35:02;;;;;;;16.30;14.70;;;;;;;;;;5054317;28;20365;-81
2020/12/30 04:37:28;;;;;;;15.82;14.23;;;;;;;;;;5054153;28;20445;-79
2020/12/30 04:39:53;;;;;;;16.67;15.00;;;;;;;;;;5054064;28;20464;-80
2020/12/30 04:42:30;;;;;;;16.15;14.13;;;;;;;;;;5070914;28;20390;-79
2020/12/30 04:44:57;;;;;;;15.35;13.85;;;;;;;;;;5072140;28;20365;-79
2020/12/30 04:47:25;;;;;;;14.90;13.38;;;;;;;;;;5054199;28;20420;-81
2020/12/30 04:49:51;;;;;;;14.90;13.32;;;;;;;;;;5071649;28;20365;-81
2020/12/30 04:52:18;;;;;;;16.20;13.20;;;;;;;;;;5053860;28;20366;-81
2020/12/30 04:54:44;;;;;;;14.95;13.45;;;;;;;;;;5071638;28;20724;-80
2020/12/30 04:57:14;;;;;;;15.70;13.05;;;;;;;;;;5071639;28;20361;-80
2020/12/30 04:59:42;;;;;;;17.17;13.25;;;;;;;;;;5053747;28;20678;-80
2020/12/30 05:02:09;;;;;;;14.52;13.02;;;;;;;;;;5053782;28;20394;-80
2020/12/30 05:04:36;;;;;;;14.18;12.70;;;;;;;;;;5053606;28;20370;-80
2020/12/30 05:07:06;;;;;;;14.30;12.90;;;;;;;;;;5053629;28;20369;-80
2020/12/30 05:09:33;;;;;;;14.02;12.57;;;;;;;;;;5053640;28;20359;-79
2020/12/30 05:11:59;;;;;;;14.27;12.63;;;;;;;;;;5053805;28;20867;-80
2020/12/30 05:14:25;;;;;;;14.18;12.77;;;;;;;;;;5053815;28;20367;-80
2020/12/30 05:16:50;;;;;;;15.75;13.07;;;;;;;;;;5071861;28;20670;-80
2020/12/30 05:19:16;;;;;;;14.68;13.18;;;;;;;;;;5053588;28;20724;-81
2020/12/30 05:21:42;;;;;;;15.43;13.63;;;;;;;;;;5053153;28;20382;-80
2020/12/30 05:24:09;;;;;;;16.70;14.50;;;;;;;;;;5053435;28;20363;-80
2020/12/30 05:26:36;;;;;;;15.63;13.32;;;;;;;;;;5053532;28;20370;-81
2020/12/30 05:29:04;;;;;;;16.77;14.27;;;;;;;;;;5053507;28;20453;-82
2020/12/30 05:31:30;;;;;;;16.60;14.60;;;;;;;;;;5071402;28;20363;-81
2020/12/30 05:33:56;;;;;;;16.02;14.32;;;;;;;;;;5071336;28;20876;-80
2020/12/30 05:36:25;;;;;;;16.37;14.57;;;;;;;;;;5056940;28;20402;-82
2020/12/30 05:38:51;;;;;;;17.23;15.02;;;;;;;;;;5053409;28;20358;-81
2020/12/30 05:41:20;;;;;;;18.08;15.00;;;;;;;;;;5053021;28;20376;-80
2020/12/30 05:43:46;;;;;;;16.55;14.85;;;;;;;;;;5071030;28;20350;-80
2020/12/30 05:46:24;;;;;;;16.58;14.73;;;;;;;;;;5052942;28;20362;-81
2020/12/30 05:48:52;;;;;;;16.67;14.88;;;;;;;;;;5070788;28;20361;-80
2020/12/30 05:51:25;;;;;;;18.10;15.73;;;;;;;;;;5070832;28;20836;-80
2020/12/30 05:54:07;;;;;;;18.45;15.82;;;;;;;;;;5070500;28;20390;-80
2020/12/30 05:56:33;;;;;;;16.95;15.20;;;;;;;;;;5052871;28;20366;-80
2020/12/30 05:59:00;;;;;;;16.33;14.63;;;;;;;;;;5070630;28;20750;-80
2020/12/30 06:01:27;;;;;;;17.05;15.25;;;;;;;;;;5052461;28;20880;-80
2020/12/30 06:03:55;;;;;;;22.05;17.35;;;;;;;;;;5052209;28;20430;-81
2020/12/30 06:06:22;;;;;;;17.42;15.55;;;;;;;;;;5071022;28;20825;-81
2020/12/30 06:08:49;;;;;;;17.42;15.57;;;;;;;;;;5053103;28;20366;-81
2020/12/30 06:11:21;;;;;;;20.30;15.88;;;;;;;;;;5052768;28;20828;-80
2020/12/30 06:13:52;;;;;;;17.17;15.43;;;;;;;;;;5052519;28;20423;-80
2020/12/30 06:16:19;;;;;;;19.23;15.80;;;;;;;;;;5053197;28;20419;-81
2020/12/30 06:18:46;;;;;;;17.95;16.05;;;;;;;;;;5055049;28;20358;-81
2020/12/30 06:21:12;;;;;;;19.58;16.60;;;;;;;;;;5052389;28;20905;-80
2020/12/30 06:23:39;;;;;;;18.20;16.35;;;;;;;;;;5052494;28;20465;-81
2020/12/30 06:26:07;;;;;;;18.05;15.82;;;;;;;;;;5070543;28;20355;-80
2020/12/30 06:28:33;;;;;;;17.98;16.17;;;;;;;;;;5052490;28;20445;-80
2020/12/30 06:31:01;;;;;;;18.53;16.57;;;;;;;;;;5070476;28;20449;-82
2020/12/30 06:33:27;;;;;;;19.70;17.07;;;;;;;;;;5052698;28;20674;-80
2020/12/30 06:35:55;;;;;;;19.45;16.77;;;;;;;;;;5070521;28;20845;-82
2020/12/30 06:38:28;;;;;;;18.23;16.33;;;;;;;;;;5070663;28;20353;-82
2020/12/30 06:40:58;;;;;;;19.48;16.65;;;;;;;;;;5052782;28;20367;-82
2020/12/30 06:43:37;;;;;;;18.00;16.02;;;;;;;;;;5070542;28;20437;-80
2020/12/30 06:46:03;;;;;;;18.20;16.27;;;;;;;;;;5052551;28;20371;-81
2020/12/30 06:48:29;;;;;;;18.85;16.02;;;;;;;;;;5070424;28;20375;-80
2020/12/30 06:50:55;;;;;;;17.90;15.85;;;;;;;;;;5052342;28;20359;-80
2020/12/30 06:53:28;;;;;;;18.17;16.27;;;;;;;;;;5052567;28;20475;-79
2020/12/30 06:55:54;;;;;;;19.37;16.80;;;;;;;;;;5052455;28;20369;-79
2020/12/30 06:58:39;;;;;;;20.95;17.27;;;;;;;;;;5052389;28;20701;-80
2020/12/30 07:01:05;;;;;;;19.73;16.83;;;;;;;;;;5069824;28;20448;-80
2020/12/30 07:03:32;;;;;;;21.67;19.00;;;;;;;;;;5070004;28;20963;-79
2020/12/30 07:06:18;;;;;;;20.33;17.45;;;;;;;;;;5072771;28;20366;-79
2020/12/30 07:08:44;;;;;;;24.05;18.83;;;;;;;;;;5055740;28;20355;-79
2020/12/30 07:11:10;;;;;;;22.10;19.00;;;;;;;;;;5073892;28;20430;-80
2020/12/30 07:13:42;;;;;;;20.23;18.02;;;;;;;;;;5055718;28;20366;-80
2020/12/30 07:16:14;;;;;;;19.98;17.73;;;;;;;;;;5073613;28;20412;-79
2020/12/30 07:18:46;;;;;;;21.27;18.00;;;;;;;;;;5073788;28;20358;-79
2020/12/30 07:21:13;;;;;;;19.52;17.45;;;;;;;;;;5055164;28;20359;-79
2020/12/30 07:23:39;;;;;;;19.80;16.83;;;;;;;;;;5055596;28;20370;-80
2020/12/30 07:26:05;;;;;;;22.40;18.87;;;;;;;;;;5055724;28;20385;-81
2020/12/30 07:28:31;;;;;;;22.15;19.75;;;;;;;;;;5073318;28;20825;-79
2020/12/30 07:30:57;;;;;;;23.67;19.70;;;;;;;;;;5055054;28;20813;-80
2020/12/30 07:33:23;;;;;;;19.85;17.83;;;;;;;;;;5055587;28;20366;-80
2020/12/30 07:35:49;;;;;;;19.95;17.85;;;;;;;;;;5073252;28;20837;-79
2020/12/30 07:38:15;;;;;;;22.45;19.13;;;;;;;;;;5073576;28;20358;-79
2020/12/30 07:40:41;;;;;;;23.02;20.13;;;;;;;;;;5054987;28;20879;-79
2020/12/30 07:43:07;;;;;;;22.58;19.98;;;;;;;;;;5055040;28;20492;-81
2020/12/30 07:45:33;;;;;;;21.13;18.92;;;;;;;;;;5054859;28;20362;-82
2020/12/30 07:48:07;;;;;;;21.20;18.95;;;;;;;;;;5055111;28;20369;-83
2020/12/30 07:50:49;;;;;;;21.17;18.55;;;;;;;;;;5054722;28;20871;-83
2020/12/30 07:53:18;;;;;;;19.80;17.70;;;;;;;;;;5054980;28;20445;-80
2020/12/30 07:55:44;;;;;;;21.77;19.05;;;;;;;;;;5054889;28;20374;-82
2020/12/30 07:58:11;;;;;;;21.67;19.35;;;;;;;;;;5054960;28;20424;-79
2020/12/30 08:00:37;;;;;;;22.20;19.80;;;;;;;;;;5072742;28;20385;-79
2020/12/30 08:03:03;;;;;;;22.20;19.77;;;;;;;;;;5054584;28;20811;-78
2020/12/30 08:05:29;;;;;;;22.77;20.37;;;;;;;;;;5054803;28;20415;-81
2020/12/30 08:07:55;;;;;;;22.30;19.55;;;;;;;;;;5072972;28;20358;-81
2020/12/30 08:10:22;;;;;;;26.65;21.30;;;;;;;;;;5054272;28;20914;-80
2020/12/30 08:12:48;;;;;;;26.77;22.50;;;;;;;;;;5072367;28;20479;-81
2020/12/30 08:15:14;;;;;;;24.80;22.02;;;;;;;;;;5054368;28;20496;-83
2020/12/30 08:17:41;;;;;;;24.70;21.08;;;;;;;;;;5054681;28;20360;-81
2020/12/30 08:20:07;;;;;;;25.60;22.38;;;;;;;;;;5054532;28;20400;-84
2020/12/30 08:22:33;;;;;;;27.60;22.65;;;;;;;;;;5054561;28;20441;-85
2020/12/30 08:24:59;;;;;;;25.27;21.67;;;;;;;;;;5054126;28;20369;-86
2020/12/30 08:27:29;;;;;;;26.92;22.33;;;;;;;;;;5054489;28;20368;-81
2020/12/30 08:29:56;;;;;;;24.33;21.52;;;;;;;;;;5055220;28;20445;-88
2020/12/30 08:32:34;;;;;;;25.70;21.13;;;;;;;;;;5054907;28;20389;-84
2020/12/30 08:35:03;;;;;;;22.83;20.23;;;;;;;;;;5069830;28;21535;-86
2020/12/30 08:37:30;;;;;;;23.23;20.73;;;;;;;;;;5064403;28;20842;-85
2020/12/30 08:40:01;;;;;;;21.83;19.50;;;;;;;;;;5048953;28;20383;-85
2020/12/30 08:42:35;;;;;;;21.08;18.85;;;;;;;;;;5051103;28;20554;-85
2020/12/30 08:45:02;;;;;;;21.17;19.05;;;;;;;;;;5051876;28;20379;-84
2020/12/30 08:47:29;;;;;;;22.10;18.73;;;;;;;;;;5050449;28;20372;-84
2020/12/30 08:49:57;;;;;;;20.95;18.10;;;;;;;;;;5049658;28;20368;-84
2020/12/30 08:52:23;;;;;;;20.00;17.33;;;;;;;;;;5050319;28;20367;-84
2020/12/30 08:55:00;;;;;;;20.13;17.98;;;;;;;;;;5049937;28;20379;-84
2020/12/30 08:57:26;;;;;;;19.90;17.20;;;;;;;;;;5053570;28;20380;-85
2020/12/30 08:59:52;;;;;;;20.55;17.10;;;;;;;;;;5041663;28;20457;-83
2020/12/30 09:02:18;;;;;;;19.55;16.00;;;;;;;;;;5053137;28;20452;-85
2020/12/30 09:04:54;;;;;;;19.58;16.17;;;;;;;;;;5056788;28;20364;-83
2020/12/30 09:07:26;;;;;;;18.02;15.77;;;;;;;;;;5051413;28;20940;-84
2020/12/30 09:10:04;;;;;;;17.08;15.27;;;;;;;;;;5050442;28;20417;-84
2020/12/30 09:12:30;;;;;;;15.83;14.17;;;;;;;;;;5036670;28;20391;-84
2020/12/30 09:14:56;;;;;;;17.60;15.18;;;;;;;;;;5068326;28;20405;-83
2020/12/30 09:17:22;;;;;;;22.37;17.57;;;;;;;;;;5033249;28;21034;-81
2020/12/30 09:19:49;;;;;;;17.80;15.63;;;;;;;;;;5045446;28;20380;-79
2020/12/30 09:22:15;;;;;;;15.90;13.82;;;;;;;;;;5056055;28;20901;-81
2020/12/30 09:24:42;;;;;;;17.48;14.07;;;;;;;;;;5053621;28;20378;-80
2020/12/30 09:27:18;;;;;;;15.48;13.88;;;;;;;;;;5066607;28;20439;-78
2020/12/30 09:29:45;;;;;;;14.25;11.93;;;;;;;;;;5048970;28;20404;-80
2020/12/30 09:32:11;;;;;;;14.55;11.52;;;;;;;;;;5047477;28;20386;-80
2020/12/30 09:34:37;;;;;;;13.77;11.85;;;;;;;;;;5068691;28;20453;-79
2020/12/30 09:37:03;;;;;;;14.57;11.98;;;;;;;;;;5065980;28;20374;-80
2020/12/30 09:39:29;;;;;;;15.45;12.85;;;;;;;;;;5051320;28;20403;-81
2020/12/30 09:42:02;;;;;;;12.07;10.75;;;;;;;;;;5071094;28;20797;-82
2020/12/30 09:44:28;;;;;;;13.85;10.73;;;;;;;;;;5052519;28;20415;-81
2020/12/30 09:46:55;;;;;;;11.65;10.45;;;;;;;;;;5054764;28;20358;-81
2020/12/30 09:49:22;;;;;;;11.53;9.83;;;;;;;;;;5070994;28;20404;-80
2020/12/30 09:51:57;;;;;;;12.40;10.40;;;;;;;;;;5055384;28;20372;-79
2020/12/30 09:54:23;;;;;;;11.80;10.10;;;;;;;;;;5038533;28;20385;-78
2020/12/30 09:56:52;;;;;;;10.95;9.80;;;;;;;;;;5038174;28;20470;-79
2020/12/30 09:59:21;;;;;;;12.07;10.57;;;;;;;;;;5044468;28;20507;-80
2020/12/30 10:01:48;;;;;;;12.50;10.03;;;;;;;;;;5058109;28;20423;-81
2020/12/30 10:04:14;;;;;;;11.63;9.90;;;;;;;;;;5047842;28;20386;-78
2020/12/30 10:06:40;;;;;;;12.95;9.40;;;;;;;;;;5067976;28;20429;-80
2020/12/30 10:09:07;;;;;;;13.95;9.60;;;;;;;;;;5049700;28;20366;-79
2020/12/30 10:11:33;;;;;;;13.15;9.80;;;;;;;;;;5050650;28;20725;-79
2020/12/30 10:13:59;;;;;;;10.95;8.73;;;;;;;;;;5068886;28;20362;-79
2020/12/30 10:16:30;;;;;;;9.75;8.75;;;;;;;;;;5049912;28;20377;-79
2020/12/30 10:18:57;;;;;;;12.40;9.37;;;;;;;;;;5063250;28;20363;-79
2020/12/30 10:21:32;;;;;;;13.07;9.70;;;;;;;;;;5041625;28;20893;-78
2020/12/30 10:23:59;;;;;;;11.55;9.70;;;;;;;;;;5056067;28;20454;-78
2020/12/30 10:26:25;;;;;;;11.43;9.10;;;;;;;;;;5055473;28;20458;-78
2020/12/30 10:28:51;;;;;;;10.75;8.65;;;;;;;;;;5055929;28;20381;-77
2020/12/30 10:31:18;;;;;;;10.05;8.70;;;;;;;;;;5039691;28;20377;-81
2020/12/30 10:33:44;;;;;;;9.90;8.50;;;;;;;;;;5047292;28;20492;-78
2020/12/30 10:36:10;;;;;;;10.10;7.95;;;;;;;;;;5066891;28;20827;-79
2020/12/30 10:38:37;;;;;;;9.70;8.50;;;;;;;;;;5061291;28;20400;-79
2020/12/30 10:41:03;;;;;;;10.88;8.20;;;;;;;;;;5059293;28;20373;-78
2020/12/30 10:43:29;;;;;;;9.20;8.30;;;;;;;;;;5064669;28;20418;-77
2020/12/30 10:45:55;;;;;;;9.57;7.77;;;;;;;;;;5072544;28;20441;-77
2020/12/30 10:48:22;;;;;;;9.93;8.00;;;;;;;;;;5048503;28;20437;-78
2020/12/30 10:50:48;;;;;;;9.65;7.45;;;;;;;;;;5067618;28;20447;-77
2020/12/30 10:53:14;;;;;;;9.18;7.78;;;;;;;;;;5050724;28;20446;-77
2020/12/30 10:55:40;;;;;;;8.55;7.65;;;;;;;;;;5066944;28;20398;-77
2020/12/30 10:58:06;;;;;;;8.93;7.53;;;;;;;;;;5074293;28;20399;-78
2020/12/30 11:00:32;;;;;;;8.70;7.80;;;;;;;;;;5071308;28;20382;-79
2020/12/30 11:02:58;;;;;;;8.80;7.03;;;;;;;;;;5071402;28;20744;-81
2020/12/30 11:05:23;;;;;;;8.90;7.23;;;;;;;;;;5052861;28;20374;-81
2020/12/30 11:07:49;;;;;;;8.70;7.45;;;;;;;;;;5077578;28;20519;-81
2020/12/30 11:10:15;;;;;;;7.38;6.68;;;;;;;;;;5068991;28;20374;-79
2020/12/30 11:12:51;;;;;;;8.57;7.22;;;;;;;;;;5067619;28;20420;-78
2020/12/30 11:15:17;;;;;;;9.93;7.40;;;;;;;;;;5054037;28;20962;-78
2020/12/30 11:17:43;;;;;;;9.65;7.40;;;;;;;;;;5051277;28;20382;-83
2020/12/30 11:20:11;;;;;;;8.05;7.28;;;;;;;;;;5052324;28;20469;-78
2020/12/30 11:22:37;;;;;;;12.17;7.50;;;;;;;;;;5046573;28;20885;-84
2020/12/30 11:25:03;;;;;;;9.10;7.53;;;;;;;;;;5048914;28;20507;-79
2020/12/30 11:27:29;;;;;;;9.45;7.68;;;;;;;;;;5068042;28;20929;-79
2020/12/30 11:29:55;;;;;;;9.32;7.47;;;;;;;;;;5043783;28;20380;-78
2020/12/30 11:32:21;;;;;;;9.90;7.65;;;;;;;;;;5054646;28;20397;-80
2020/12/30 11:34:49;;;;;;;8.67;7.73;;;;;;;;;;5072959;28;20377;-79
2020/12/30 11:37:15;;;;;;;9.40;7.65;;;;;;;;;;5051989;28;20393;-81
2020/12/30 11:39:42;;;;;;;9.20;7.32;;;;;;;;;;5069348;28;20729;-81
2020/12/30 11:42:09;;;;;;;10.13;7.70;;;;;;;;;;5069849;28;20394;-80
2020/12/30 11:44:35;;;;;;;8.95;7.53;;;;;;;;;;5054016;28;20393;-80
2020/12/30 11:47:01;;;;;;;8.13;6.78;;;;;;;;;;5069962;28;20361;-79
2020/12/30 11:49:28;;;;;;;8.80;7.50;;;;;;;;;;5069988;28;21055;-80
2020/12/30 11:51:54;;;;;;;8.45;7.40;;;;;;;;;;5068331;28;20358;-79
2020/12/30 11:54:20;;;;;;;9.57;7.83;;;;;;;;;;5069038;28;20358;-78
2020/12/30 11:56:46;;;;;;;8.95;7.70;;;;;;;;;;5065638;28;20391;-78
2020/12/30 11:59:12;;;;;;;9.25;7.30;;;;;;;;;;5052486;28;20865;-77
2020/12/30 12:01:38;;;;;;;8.75;7.30;;;;;;;;;;5052209;28;20480;-77
2020/12/30 12:04:04;;;;;;;9.52;7.50;;;;;;;;;;5052435;28;20393;-81
2020/12/30 12:06:31;;;;;;;8.38;6.95;;;;;;;;;;5040152;28;20376;-75
2020/12/30 12:08:57;;;;;;;7.85;7.05;;;;;;;;;;5076349;28;20372;-76
2020/12/30 12:11:23;;;;;;;8.98;7.00;;;;;;;;;;5073591;28;20682;-77
2020/12/30 12:13:49;;;;;;;7.80;7.07;;;;;;;;;;5057411;28;20862;-76
2020/12/30 12:16:15;;;;;;;8.50;7.00;;;;;;;;;;5043245;28;20396;-77
2020/12/30 12:18:41;;;;;;;7.40;6.60;;;;;;;;;;5066150;28;20376;-78
2020/12/30 12:21:07;;;;;;;8.25;6.88;;;;;;;;;;5067000;28;20469;-78
2020/12/30 12:23:33;;;;;;;7.28;6.57;;;;;;;;;;5066208;28;20404;-78
2020/12/30 12:25:59;;;;;;;7.10;6.40;;;;;;;;;;5068827;28;20503;-77
2020/12/30 12:28:55;;;;;;;8.38;6.88;;;;;;;;;;5061254;28;20380;-78
2020/12/30 12:31:22;;;;;;;9.55;7.53;;;;;;;;;;4989173;28;20393;-78
2020/12/30 12:33:48;;;;;;;8.73;7.38;;;;;;;;;;5068042;28;20362;-78
2020/12/30 12:36:15;;;;;;;9.68;7.47;;;;;;;;;;5068076;28;20408;-80
2020/12/30 12:38:41;;;;;;;8.13;7.05;;;;;;;;;;5048955;28;20385;-79
2020/12/30 12:41:07;;;;;;;8.07;7.23;;;;;;;;;;5067636;28;20354;-79
2020/12/30 12:43:34;;;;;;;10.20;7.65;;;;;;;;;;5065611;28;20397;-77
2020/12/30 12:46:00;;;;;;;8.38;7.57;;;;;;;;;;5068490;28;20416;-78
2020/12/30 12:48:26;;;;;;;9.35;7.60;;;;;;;;;;5068181;28;20418;-78
2020/12/30 12:50:53;;;;;;;9.20;6.80;;;;;;;;;;5049080;28;20460;-81
2020/12/30 12:53:19;;;;;;;9.65;7.47;;;;;;;;;;5047002;28;20453;-79
2020/12/30 12:55:45;;;;;;;9.18;7.30;;;;;;;;;;5049377;28;20370;-79
2020/12/30 12:58:11;;;;;;;7.75;6.95;;;;;;;;;;5050053;28;20370;-81
2020/12/30 13:00:38;;;;;;;8.23;6.50;;;;;;;;;;5061484;28;20376;-83
2020/12/30 13:03:04;;;;;;;7.47;6.73;;;;;;;;;;5078352;28;20398;-79
2020/12/30 13:05:29;;;;;;;8.07;7.20;;;;;;;;;;5051617;28;20447;-80
2020/12/30 13:07:55;;;;;;;7.05;6.35;;;;;;;;;;5069655;28;20361;-78
2020/12/30 13:10:21;;;;;;;8.70;7.10;;;;;;;;;;5049378;28;20390;-81
2020/12/30 13:12:47;;;;;;;10.38;7.18;;;;;;;;;;5082829;28;20370;-78
2020/12/30 13:15:13;;;;;;;9.45;7.80;;;;;;;;;;5060179;28;20372;-78
2020/12/30 13:17:40;;;;;;;9.93;7.63;;;;;;;;;;5034913;28;20511;-79
2020/12/30 13:20:06;;;;;;;9.87;7.50;;;;;;;;;;5054259;28;20399;-78
2020/12/30 13:22:32;;;;;;;11.15;8.30;;;;;;;;;;5047764;28;20489;-78
2020/12/30 13:24:59;;;;;;;11.10;8.65;;;;;;;;;;5049671;28;20471;-78
2020/12/30 13:27:25;;;;;;;10.68;7.88;;;;;;;;;;5068308;28;20381;-78
2020/12/30 13:29:51;;;;;;;8.27;7.00;;;;;;;;;;5049894;28;20451;-79
2020/12/30 13:32:17;;;;;;;8.48;7.25;;;;;;;;;;5049927;28;20465;-78
2020/12/30 13:34:43;;;;;;;8.77;6.50;;;;;;;;;;5049968;28;20370;-78
2020/12/30 13:37:09;;;;;;;9.77;6.88;;;;;;;;;;5049914;28;20370;-79
2020/12/30 13:39:35;;;;;;;8.50;6.90;;;;;;;;;;5067676;28;20901;-78
2020/12/30 13:42:01;;;;;;;7.03;6.32;;;;;;;;;;5067761;28;20433;-79
2020/12/30 13:44:27;;;;;;;8.73;6.68;;;;;;;;;;5059610;28;20893;-78
2020/12/30 13:46:55;;;;;;;8.50;6.45;;;;;;;;;;5054259;28;20374;-80
2020/12/30 13:49:21;;;;;;;8.60;6.90;;;;;;;;;;5033186;28;20384;-80
2020/12/30 13:51:48;;;;;;;10.23;7.07;;;;;;;;;;5039564;28;20751;-82
2020/12/30 13:54:14;;;;;;;7.55;6.82;;;;;;;;;;5047349;28;20410;-78
2020/12/30 13:56:40;;;;;;;7.57;6.75;;;;;;;;;;5049507;28;20522;-79
2020/12/30 13:59:06;;;;;;;9.60;7.13;;;;;;;;;;5049188;28;20377;-78
2020/12/30 14:01:33;;;;;;;8.48;6.97;;;;;;;;;;5067424;28;20459;-78
2020/12/30 14:03:58;;;;;;;7.97;6.57;;;;;;;;;;5067091;28;20425;-79
2020/12/30 14:06:25;;;;;;;7.57;6.77;;;;;;;;;;5072736;28;20374;-79
2020/12/30 14:08:51;;;;;;;9.82;7.70;;;;;;;;;;5067380;28;20400;-79
2020/12/30 14:11:18;;;;;;;8.95;7.45;;;;;;;;;;5068614;28;21136;-78
2020/12/30 14:13:44;;;;;;;10.70;7.82;;;;;;;;;;5064252;28;20904;-79
2020/12/30 14:16:12;;;;;;;8.95;7.07;;;;;;;;;;5047106;28;20495;-80
2020/12/30 14:18:38;;;;;;;9.10;7.15;;;;;;;;;;5061029;28;20397;-78
2020/12/30 14:21:04;;;;;;;10.82;7.35;;;;;;;;;;5064839;28;20780;-79
2020/12/30 14:23:31;;;;;;;9.73;7.32;;;;;;;;;;5057645;28;20556;-79